createdAt,value
2022-12-13T00:00:28.035Z,35.10
2022-12-13T00:01:27.994Z,38.90
2022-12-13T00:02:28.099Z,40.70
2022-12-13T00:03:28.001Z,40.20
2022-12-13T00:04:28.101Z,38.20
2022-12-13T00:05:27.955Z,37.90
2022-12-13T00:06:28.002Z,34.00
2022-12-13T00:07:27.924Z,38.90
2022-12-13T00:08:27.987Z,37.50
2022-12-13T00:09:27.917Z,36.60
2022-12-13T00:10:27.936Z,35.70
2022-12-13T00:11:27.898Z,35.40
2022-12-13T00:12:27.895Z,37.70
2022-12-13T00:13:27.895Z,36.60
2022-12-13T00:14:27.888Z,33.80
2022-12-13T00:15:27.908Z,36.00
2022-12-13T00:16:27.954Z,36.80
2022-12-13T00:17:27.869Z,37.60
2022-12-13T00:18:27.796Z,39.80
2022-12-13T00:19:27.809Z,36.90
2022-12-13T00:20:27.818Z,37.90
2022-12-13T00:21:27.800Z,37.20
2022-12-13T00:22:27.786Z,39.20
2022-12-13T00:23:27.746Z,35.70
2022-12-13T00:24:27.770Z,38.40
2022-12-13T00:25:27.740Z,38.10
2022-12-13T00:26:27.739Z,35.60
2022-12-13T00:27:27.708Z,35.00
2022-12-13T00:28:27.687Z,35.30
2022-12-13T00:29:27.746Z,35.30
2022-12-13T00:30:27.707Z,36.00
2022-12-13T00:31:56.552Z,36.80
2022-12-13T00:32:28.661Z,35.70
2022-12-13T00:33:27.628Z,39.20
2022-12-13T00:34:27.663Z,41.90
2022-12-13T00:35:27.610Z,45.40
2022-12-13T00:36:27.642Z,44.60
2022-12-13T00:37:27.596Z,40.30
2022-12-13T00:38:27.598Z,36.60
2022-12-13T00:39:27.622Z,36.80
2022-12-13T00:40:27.548Z,38.70
2022-12-13T00:41:27.562Z,38.30
2022-12-13T00:42:27.543Z,34.50
2022-12-13T00:43:27.543Z,36.30
2022-12-13T00:44:27.539Z,34.00
2022-12-13T00:45:27.508Z,35.80
2022-12-13T00:46:27.647Z,36.90
2022-12-13T00:47:27.494Z,37.90
2022-12-13T00:48:27.484Z,34.80
2022-12-13T00:49:27.508Z,40.80
2022-12-13T00:50:27.462Z,44.80
2022-12-13T00:51:27.453Z,39.90
2022-12-13T00:52:27.422Z,39.90
2022-12-13T00:53:27.423Z,39.30
2022-12-13T00:54:27.448Z,39.90
2022-12-13T00:55:27.437Z,39.20
2022-12-13T00:56:27.403Z,36.10
2022-12-13T00:57:27.376Z,38.80
2022-12-13T00:58:27.361Z,37.00
2022-12-13T00:59:27.405Z,36.00
2022-12-13T01:00:27.334Z,38.20
2022-12-13T01:01:27.482Z,36.10
2022-12-13T01:02:27.356Z,37.00
2022-12-13T01:03:27.342Z,38.60
2022-12-13T01:04:27.313Z,35.60
2022-12-13T01:05:47.586Z,38.20
2022-12-13T01:06:28.284Z,35.30
2022-12-13T01:07:27.292Z,37.10
2022-12-13T01:08:27.275Z,35.30
2022-12-13T01:09:27.372Z,38.50
2022-12-13T01:10:27.236Z,39.70
2022-12-13T01:11:27.247Z,35.90
2022-12-13T01:12:27.232Z,36.60
2022-12-13T01:13:27.192Z,35.50
2022-12-13T01:14:27.192Z,38.30
2022-12-13T01:15:27.173Z,38.60
2022-12-13T01:16:27.235Z,37.20
2022-12-13T01:17:27.163Z,38.50
2022-12-13T01:18:27.161Z,40.50
2022-12-13T01:19:27.174Z,40.00
2022-12-13T01:20:27.112Z,39.00
2022-12-13T01:21:27.096Z,37.90
2022-12-13T01:22:27.083Z,38.20
2022-12-13T01:23:27.086Z,39.60
2022-12-13T01:24:27.075Z,37.90
2022-12-13T01:25:27.103Z,38.80
2022-12-13T01:26:27.046Z,39.40
2022-12-13T01:27:27.037Z,40.80
2022-12-13T01:28:27.015Z,40.30
2022-12-13T01:29:27.036Z,38.50
2022-12-13T01:30:26.993Z,40.20
2022-12-13T01:31:27.039Z,38.30
2022-12-13T01:32:26.996Z,43.20
2022-12-13T01:33:26.967Z,45.50
2022-12-13T01:34:26.979Z,41.70
2022-12-13T01:35:26.972Z,44.80
2022-12-13T01:36:28.396Z,44.70
2022-12-13T01:37:26.933Z,41.70
2022-12-13T01:38:26.918Z,43.00
2022-12-13T01:39:27.254Z,44.80
2022-12-13T01:40:26.887Z,41.40
2022-12-13T01:41:27.324Z,44.80
2022-12-13T01:42:26.875Z,40.20
2022-12-13T01:43:26.847Z,42.30
2022-12-13T01:44:26.855Z,38.80
2022-12-13T01:45:26.837Z,38.80
2022-12-13T01:46:26.874Z,38.10
2022-12-13T01:47:26.849Z,42.20
2022-12-13T01:48:26.794Z,37.30
2022-12-13T01:49:26.806Z,42.00
2022-12-13T01:50:26.787Z,42.60
2022-12-13T01:51:26.769Z,44.40
2022-12-13T01:52:26.737Z,41.50
2022-12-13T01:53:26.749Z,42.10
2022-12-13T01:54:33.469Z,43.40
2022-12-13T01:55:27.729Z,43.50
2022-12-13T01:56:26.727Z,45.80
2022-12-13T01:57:26.710Z,43.60
2022-12-13T01:58:26.699Z,40.70
2022-12-13T01:59:26.688Z,40.40
2022-12-13T02:00:26.709Z,41.10
2022-12-13T02:01:26.691Z,41.40
2022-12-13T02:02:26.646Z,46.80
2022-12-13T02:03:26.620Z,40.70
2022-12-13T02:04:26.619Z,43.10
2022-12-13T02:05:26.697Z,40.50
2022-12-13T02:06:26.577Z,41.70
2022-12-13T02:07:26.594Z,34.40
2022-12-13T02:08:26.622Z,32.00
2022-12-13T02:09:26.556Z,34.00
2022-12-13T02:10:37.168Z,34.10
2022-12-13T02:11:26.552Z,32.80
2022-12-13T02:12:29.636Z,31.30
2022-12-13T02:13:26.537Z,31.00
2022-12-13T02:14:26.521Z,31.90
2022-12-13T02:15:26.518Z,33.10
2022-12-13T02:16:26.556Z,33.10
2022-12-13T02:17:26.466Z,29.50
2022-12-13T02:18:26.518Z,34.30
2022-12-13T02:19:26.451Z,39.40
2022-12-13T02:20:26.442Z,38.50
2022-12-13T02:21:26.418Z,39.70
2022-12-13T02:22:26.430Z,37.10
2022-12-13T02:23:26.411Z,39.40
2022-12-13T02:24:26.453Z,42.10
2022-12-13T02:25:28.887Z,42.00
2022-12-13T02:26:26.389Z,39.20
2022-12-13T02:27:30.178Z,38.50
2022-12-13T02:28:31.722Z,38.60
2022-12-13T02:29:30.391Z,37.90
2022-12-13T02:30:26.309Z,42.20
2022-12-13T02:31:26.440Z,37.20
2022-12-13T02:32:26.310Z,39.90
2022-12-13T02:33:26.290Z,36.90
2022-12-13T02:34:26.284Z,39.40
2022-12-13T02:35:26.289Z,35.10
2022-12-13T02:36:26.269Z,34.60
2022-12-13T02:37:26.238Z,36.20
2022-12-13T02:38:26.269Z,38.60
2022-12-13T02:39:29.971Z,36.80
2022-12-13T02:40:26.242Z,35.00
2022-12-13T02:41:26.200Z,38.00
2022-12-13T02:42:26.180Z,35.00
2022-12-13T02:43:26.170Z,35.40
2022-12-13T02:44:27.223Z,36.00
2022-12-13T02:45:26.619Z,37.00
2022-12-13T02:46:26.244Z,36.50
2022-12-13T02:47:26.131Z,36.80
2022-12-13T02:48:26.120Z,34.70
2022-12-13T02:49:26.131Z,35.30
2022-12-13T02:50:26.120Z,36.60
2022-12-13T02:51:26.145Z,34.60
2022-12-13T02:52:26.091Z,35.50
2022-12-13T02:53:26.080Z,40.80
2022-12-13T02:54:26.061Z,36.00
2022-12-13T02:55:28.258Z,37.70
2022-12-13T02:56:26.030Z,37.00
2022-12-13T02:57:26.041Z,37.40
2022-12-13T02:58:26.045Z,35.90
2022-12-13T02:59:26.004Z,37.90
2022-12-13T03:00:26.016Z,34.80
2022-12-13T03:01:29.127Z,38.40
2022-12-13T03:02:31.550Z,39.60
2022-12-13T03:03:27.125Z,37.70
2022-12-13T03:04:26.696Z,35.30
2022-12-13T03:05:25.968Z,35.00
2022-12-13T03:06:25.922Z,33.40
2022-12-13T03:07:26.972Z,36.90
2022-12-13T03:08:25.990Z,36.10
2022-12-13T03:09:25.904Z,34.10
2022-12-13T03:10:25.885Z,36.40
2022-12-13T03:11:25.854Z,35.20
2022-12-13T03:12:25.843Z,35.20
2022-12-13T03:13:25.886Z,30.20
2022-12-13T03:14:29.347Z,33.00
2022-12-13T03:15:26.823Z,35.00
2022-12-13T03:16:25.838Z,37.70
2022-12-13T03:17:25.804Z,32.20
2022-12-13T03:18:25.827Z,39.30
2022-12-13T03:19:25.808Z,35.70
2022-12-13T03:20:25.777Z,31.90
2022-12-13T03:21:25.764Z,31.30
2022-12-13T03:22:25.747Z,31.40
2022-12-13T03:23:25.725Z,32.40
2022-12-13T03:24:25.745Z,33.60
2022-12-13T03:25:30.985Z,32.80
2022-12-13T03:26:26.708Z,31.10
2022-12-13T03:27:25.698Z,30.70
2022-12-13T03:28:25.704Z,32.80
2022-12-13T03:29:25.677Z,31.10
2022-12-13T03:30:25.728Z,31.80
2022-12-13T03:31:25.691Z,34.30
2022-12-13T03:32:25.624Z,32.70
2022-12-13T03:33:25.629Z,31.30
2022-12-13T03:34:25.613Z,32.30
2022-12-13T03:35:34.327Z,32.60
2022-12-13T03:36:26.725Z,32.70
2022-12-13T03:37:25.628Z,32.60
2022-12-13T03:38:25.586Z,32.70
2022-12-13T03:39:25.542Z,31.00
2022-12-13T03:40:25.549Z,28.70
2022-12-13T03:41:25.558Z,31.30
2022-12-13T03:42:25.549Z,35.60
2022-12-13T03:43:25.503Z,31.40
2022-12-13T03:44:25.549Z,35.80
2022-12-13T03:45:26.483Z,30.60
2022-12-13T03:46:25.517Z,34.50
2022-12-13T03:47:25.471Z,33.20
2022-12-13T03:48:25.459Z,31.70
2022-12-13T03:49:25.450Z,31.50
2022-12-13T03:50:27.371Z,30.40
2022-12-13T03:51:25.508Z,34.70
2022-12-13T03:52:25.410Z,36.00
2022-12-13T03:53:33.085Z,39.60
2022-12-13T03:54:26.401Z,40.70
2022-12-13T03:55:25.368Z,48.90
2022-12-13T03:56:25.410Z,45.70
2022-12-13T03:57:25.347Z,47.70
2022-12-13T03:58:25.351Z,43.40
2022-12-13T03:59:25.331Z,38.80
2022-12-13T04:00:25.308Z,39.70
2022-12-13T04:01:25.402Z,43.30
2022-12-13T04:02:30.595Z,39.80
2022-12-13T04:03:26.330Z,38.20
2022-12-13T04:04:25.269Z,34.90
2022-12-13T04:05:25.293Z,34.00
2022-12-13T04:06:29.808Z,37.00
2022-12-13T04:07:26.278Z,35.00
2022-12-13T04:08:26.290Z,34.70
2022-12-13T04:09:25.219Z,38.30
2022-12-13T04:10:26.776Z,39.20
2022-12-13T04:11:25.194Z,35.50
2022-12-13T04:12:25.217Z,37.80
2022-12-13T04:13:25.232Z,34.40
2022-12-13T04:14:25.163Z,41.50
2022-12-13T04:15:25.158Z,38.40
2022-12-13T04:16:25.264Z,38.50
2022-12-13T04:17:25.131Z,36.20
2022-12-13T04:18:25.108Z,33.20
2022-12-13T04:19:25.160Z,35.80
2022-12-13T04:20:25.080Z,36.10
2022-12-13T04:21:25.080Z,33.80
2022-12-13T04:22:25.163Z,35.40
2022-12-13T04:23:25.081Z,33.20
2022-12-13T04:24:30.983Z,33.80
2022-12-13T04:25:26.029Z,34.30
2022-12-13T04:26:25.011Z,35.00
2022-12-13T04:27:25.022Z,31.40
2022-12-13T04:28:25.020Z,31.80
2022-12-13T04:29:25.024Z,32.40
2022-12-13T04:30:24.983Z,33.30
2022-12-13T04:31:25.004Z,33.60
2022-12-13T04:32:26.639Z,30.70
2022-12-13T04:33:24.954Z,35.60
2022-12-13T04:34:26.451Z,28.90
2022-12-13T04:35:24.919Z,34.50
2022-12-13T04:36:31.247Z,32.60
2022-12-13T04:37:25.935Z,34.10
2022-12-13T04:38:24.881Z,33.60
2022-12-13T04:39:24.900Z,39.40
2022-12-13T04:40:25.874Z,41.40
2022-12-13T04:41:24.873Z,37.70
2022-12-13T04:42:24.844Z,52.50
2022-12-13T04:43:24.820Z,62.10
2022-12-13T04:44:28.672Z,63.40
2022-12-13T04:45:25.869Z,50.60
2022-12-13T04:46:24.834Z,49.50
2022-12-13T04:47:24.783Z,43.20
2022-12-13T04:48:30.889Z,37.60
2022-12-13T04:49:25.791Z,37.10
2022-12-13T04:50:24.748Z,37.60
2022-12-13T04:51:24.774Z,32.90
2022-12-13T04:52:24.765Z,34.10
2022-12-13T04:53:24.741Z,32.60
2022-12-13T04:54:24.881Z,31.60
2022-12-13T04:55:24.691Z,30.20
2022-12-13T04:56:24.702Z,33.80
2022-12-13T04:57:24.691Z,29.20
2022-12-13T04:58:24.694Z,30.10
2022-12-13T04:59:24.659Z,29.60
2022-12-13T05:00:24.644Z,30.90
2022-12-13T05:01:24.672Z,32.20
2022-12-13T05:02:24.674Z,31.90
2022-12-13T05:03:24.640Z,30.40
2022-12-13T05:04:30.576Z,32.20
2022-12-13T05:05:25.594Z,26.10
2022-12-13T05:06:27.087Z,28.60
2022-12-13T05:07:24.572Z,30.20
2022-12-13T05:08:24.696Z,29.10
2022-12-13T05:09:24.547Z,28.70
2022-12-13T05:10:32.150Z,32.60
2022-12-13T05:11:25.549Z,29.50
2022-12-13T05:12:24.495Z,27.60
2022-12-13T05:13:24.513Z,27.70
2022-12-13T05:14:24.474Z,30.90
2022-12-13T05:15:24.484Z,30.70
2022-12-13T05:16:24.689Z,30.20
2022-12-13T05:17:24.434Z,28.90
2022-12-13T05:18:24.454Z,30.00
2022-12-13T05:19:30.997Z,28.30
2022-12-13T05:20:25.425Z,27.00
2022-12-13T05:21:24.392Z,31.40
2022-12-13T05:22:24.418Z,28.70
2022-12-13T05:23:24.411Z,27.20
2022-12-13T05:24:24.353Z,29.00
2022-12-13T05:25:24.346Z,29.20
2022-12-13T05:26:24.355Z,28.50
2022-12-13T05:27:26.776Z,27.60
2022-12-13T05:28:27.911Z,29.40
2022-12-13T05:29:24.304Z,32.40
2022-12-13T05:30:24.313Z,31.10
2022-12-13T05:31:24.320Z,28.40
2022-12-13T05:32:24.288Z,29.20
2022-12-13T05:33:24.294Z,28.40
2022-12-13T05:34:24.273Z,28.20
2022-12-13T05:35:24.339Z,26.10
2022-12-13T05:36:24.257Z,28.40
2022-12-13T05:37:24.220Z,28.30
2022-12-13T05:38:24.218Z,30.70
2022-12-13T05:39:29.052Z,28.90
2022-12-13T05:40:25.226Z,26.90
2022-12-13T05:41:24.189Z,28.60
2022-12-13T05:42:24.170Z,28.10
2022-12-13T05:43:24.174Z,26.60
2022-12-13T05:44:25.135Z,28.40
2022-12-13T05:45:24.165Z,27.90
2022-12-13T05:46:24.195Z,30.50
2022-12-13T05:47:24.109Z,27.00
2022-12-13T05:48:24.353Z,28.40
2022-12-13T05:49:24.090Z,30.90
2022-12-13T05:50:24.076Z,28.80
2022-12-13T05:51:24.116Z,32.50
2022-12-13T05:52:30.581Z,27.70
2022-12-13T05:53:30.593Z,28.10
2022-12-13T05:54:25.060Z,31.60
2022-12-13T05:55:24.052Z,27.60
2022-12-13T05:56:23.997Z,27.40
2022-12-13T05:57:24.040Z,26.90
2022-12-13T05:58:23.990Z,29.80
2022-12-13T05:59:23.975Z,28.20
2022-12-13T06:00:30.401Z,27.00
2022-12-13T06:01:24.939Z,28.10
2022-12-13T06:02:24.049Z,28.50
2022-12-13T06:03:24.111Z,28.40
2022-12-13T06:04:23.921Z,31.60
2022-12-13T06:05:23.911Z,29.20
2022-12-13T06:06:23.900Z,29.00
2022-12-13T06:07:23.888Z,31.40
2022-12-13T06:08:25.464Z,27.70
2022-12-13T06:09:23.881Z,29.50
2022-12-13T06:10:23.839Z,37.90
2022-12-13T06:11:31.698Z,38.90
2022-12-13T06:12:31.615Z,31.00
2022-12-13T06:13:31.947Z,32.80
2022-12-13T06:14:24.822Z,31.20
2022-12-13T06:15:24.283Z,31.30
2022-12-13T06:16:24.433Z,34.00
2022-12-13T06:17:23.760Z,32.40
2022-12-13T06:18:23.802Z,34.80
2022-12-13T06:19:23.751Z,32.20
2022-12-13T06:20:24.754Z,34.90
2022-12-13T06:21:23.852Z,36.70
2022-12-13T06:22:23.723Z,35.60
2022-12-13T06:23:23.734Z,34.30
2022-12-13T06:24:23.743Z,35.00
2022-12-13T06:25:30.539Z,35.20
2022-12-13T06:26:24.660Z,34.70
2022-12-13T06:27:23.662Z,38.50
2022-12-13T06:28:23.764Z,32.40
2022-12-13T06:29:25.678Z,35.30
2022-12-13T06:30:23.668Z,32.30
2022-12-13T06:31:23.619Z,38.50
2022-12-13T06:32:23.600Z,33.00
2022-12-13T06:33:23.855Z,34.80
2022-12-13T06:34:23.593Z,37.00
2022-12-13T06:35:30.883Z,36.90
2022-12-13T06:36:24.550Z,38.50
2022-12-13T06:37:23.553Z,37.10
2022-12-13T06:38:32.080Z,36.90
2022-12-13T06:39:24.521Z,33.90
2022-12-13T06:40:24.583Z,37.20
2022-12-13T06:41:27.622Z,36.90
2022-12-13T06:42:24.513Z,37.90
2022-12-13T06:43:23.498Z,37.90
2022-12-13T06:44:23.496Z,39.10
2022-12-13T06:45:23.451Z,36.50
2022-12-13T06:46:24.637Z,36.10
2022-12-13T06:47:32.094Z,36.80
2022-12-13T06:48:24.444Z,35.20
2022-12-13T06:49:23.426Z,37.90
2022-12-13T06:50:24.445Z,39.30
2022-12-13T06:51:32.384Z,38.30
2022-12-13T06:52:24.394Z,34.60
2022-12-13T06:53:23.383Z,32.60
2022-12-13T06:54:23.359Z,32.70
2022-12-13T06:55:24.079Z,36.90
2022-12-13T06:56:23.374Z,35.30
2022-12-13T06:57:23.328Z,39.90
2022-12-13T06:58:23.295Z,44.10
2022-12-13T06:59:23.325Z,49.20
2022-12-13T07:00:27.167Z,51.00
2022-12-13T07:01:25.106Z,57.80
2022-12-13T07:02:25.823Z,54.20
2022-12-13T07:03:23.289Z,47.50
2022-12-13T07:04:30.156Z,44.00
2022-12-13T07:05:24.235Z,45.60
2022-12-13T07:06:23.234Z,41.60
2022-12-13T07:07:23.215Z,42.80
2022-12-13T07:08:23.266Z,40.70
2022-12-13T07:09:23.196Z,37.80
2022-12-13T07:10:23.223Z,37.30
2022-12-13T07:11:23.152Z,36.30
2022-12-13T07:12:23.162Z,36.30
2022-12-13T07:13:23.241Z,39.20
2022-12-13T07:14:23.156Z,37.80
2022-12-13T07:15:23.125Z,49.60
2022-12-13T07:16:23.167Z,49.10
2022-12-13T07:17:34.065Z,41.20
2022-12-13T07:18:24.087Z,46.60
2022-12-13T07:19:24.752Z,40.80
2022-12-13T07:20:23.087Z,41.70
2022-12-13T07:21:23.075Z,42.60
2022-12-13T07:22:23.077Z,41.70
2022-12-13T07:23:24.431Z,35.20
2022-12-13T07:24:23.012Z,38.30
2022-12-13T07:25:28.463Z,37.60
2022-12-13T07:26:23.985Z,37.10
2022-12-13T07:27:23.051Z,37.00
2022-12-13T07:28:22.974Z,33.90
2022-12-13T07:29:23.043Z,32.80
2022-12-13T07:30:23.007Z,30.10
2022-12-13T07:31:23.029Z,36.50
2022-12-13T07:32:22.949Z,34.60
2022-12-13T07:33:22.956Z,35.00
2022-12-13T07:34:22.893Z,30.80
2022-12-13T07:35:22.908Z,34.40
2022-12-13T07:36:22.916Z,36.60
2022-12-13T07:37:29.773Z,34.40
2022-12-13T07:38:23.847Z,31.80
2022-12-13T07:39:22.860Z,35.00
2022-12-13T07:40:22.849Z,34.90
2022-12-13T07:41:25.900Z,36.30
2022-12-13T07:42:22.860Z,35.60
2022-12-13T07:43:23.086Z,39.50
2022-12-13T07:44:22.780Z,37.00
2022-12-13T07:45:22.798Z,35.70
2022-12-13T07:46:32.463Z,48.80
2022-12-13T07:47:23.821Z,51.30
2022-12-13T07:48:22.772Z,49.50
2022-12-13T07:49:22.747Z,48.20
2022-12-13T07:50:23.949Z,64.40
2022-12-13T07:51:22.747Z,59.80
2022-12-13T07:52:22.770Z,46.10
2022-12-13T07:53:22.988Z,42.50
2022-12-13T07:54:22.701Z,42.00
2022-12-13T07:55:23.252Z,52.80
2022-12-13T07:56:23.661Z,57.60
2022-12-13T07:57:22.657Z,63.00
2022-12-13T07:58:22.653Z,57.60
2022-12-13T07:59:28.614Z,65.60
2022-12-13T08:00:23.646Z,60.60
2022-12-13T08:01:22.665Z,52.80
2022-12-13T08:02:22.623Z,52.80
2022-12-13T08:03:25.391Z,62.70
2022-12-13T08:04:22.688Z,46.30
2022-12-13T08:05:26.843Z,43.00
2022-12-13T08:06:22.571Z,48.70
2022-12-13T08:07:22.532Z,45.20
2022-12-13T08:08:22.587Z,37.90
2022-12-13T08:09:23.529Z,37.40
2022-12-13T08:10:22.548Z,68.00
2022-12-13T08:11:22.534Z,73.50
2022-12-13T08:12:23.152Z,67.40
2022-12-13T08:13:22.653Z,63.40
2022-12-13T08:14:22.480Z,60.30
2022-12-13T08:15:22.472Z,61.90
2022-12-13T08:16:27.492Z,58.70
2022-12-13T08:17:23.406Z,51.60
2022-12-13T08:18:22.418Z,58.60
2022-12-13T08:19:22.382Z,59.80
2022-12-13T08:20:22.598Z,60.30
2022-12-13T08:21:52.619Z,63.00
2022-12-13T08:22:23.752Z,57.80
2022-12-13T08:23:22.986Z,54.60
2022-12-13T08:24:22.379Z,55.20
2022-12-13T08:25:22.311Z,63.70
2022-12-13T08:26:22.319Z,54.10
2022-12-13T08:27:22.565Z,57.50
2022-12-13T08:28:22.324Z,57.10
2022-12-13T08:29:34.751Z,55.10
2022-12-13T08:30:23.402Z,49.60
2022-12-13T08:31:22.325Z,46.50
2022-12-13T08:32:22.284Z,45.30
2022-12-13T08:33:22.675Z,44.10
2022-12-13T08:34:22.221Z,40.80
2022-12-13T08:35:22.215Z,40.80
2022-12-13T08:36:22.213Z,39.70
2022-12-13T08:37:22.214Z,42.60
2022-12-13T08:38:22.505Z,39.10
2022-12-13T08:39:22.173Z,44.00
2022-12-13T08:40:27.240Z,46.50
2022-12-13T08:41:22.144Z,44.10
2022-12-13T08:42:22.166Z,46.90
2022-12-13T08:43:24.636Z,46.70
2022-12-13T08:44:22.486Z,45.70
2022-12-13T08:45:22.109Z,53.40
2022-12-13T08:46:22.117Z,45.60
2022-12-13T08:47:24.051Z,46.10
2022-12-13T08:48:22.682Z,38.70
2022-12-13T08:49:22.118Z,38.10
2022-12-13T08:50:22.032Z,35.50
2022-12-13T08:51:24.672Z,41.10
2022-12-13T08:52:22.048Z,40.20
2022-12-13T08:53:29.592Z,36.80
2022-12-13T08:54:31.325Z,35.70
2022-12-13T08:55:25.193Z,34.10
2022-12-13T08:56:23.013Z,34.90
2022-12-13T08:57:21.975Z,31.90
2022-12-13T08:58:21.945Z,36.90
2022-12-13T08:59:21.948Z,32.60
2022-12-13T09:00:21.945Z,31.90
2022-12-13T09:01:22.002Z,35.80
2022-12-13T09:02:22.043Z,33.20
2022-12-13T09:03:22.280Z,31.60
2022-12-13T09:04:31.151Z,33.80
2022-12-13T09:05:32.266Z,33.20
2022-12-13T09:06:22.844Z,34.50
2022-12-13T09:07:21.863Z,33.00
2022-12-13T09:08:24.729Z,32.80
2022-12-13T09:09:21.828Z,30.70
2022-12-13T09:10:27.259Z,32.30
2022-12-13T09:11:34.520Z,33.90
2022-12-13T09:12:30.617Z,31.60
2022-12-13T09:13:31.738Z,35.90
2022-12-13T09:14:23.340Z,34.00
2022-12-13T09:15:23.186Z,29.30
2022-12-13T09:16:23.691Z,34.70
2022-12-13T09:17:24.278Z,34.30
2022-12-13T09:18:24.042Z,31.30
2022-12-13T09:19:26.076Z,32.70
2022-12-13T09:20:29.177Z,32.20
2022-12-13T09:21:30.839Z,33.30
2022-12-13T09:22:33.168Z,32.40
2022-12-13T09:23:23.493Z,31.10
2022-12-13T09:24:24.226Z,31.70
2022-12-13T09:25:23.912Z,34.30
2022-12-13T09:26:25.327Z,30.00
2022-12-13T09:27:27.789Z,30.60
2022-12-13T09:28:22.606Z,35.40
2022-12-13T09:29:21.629Z,33.90
2022-12-13T09:30:21.608Z,33.50
2022-12-13T09:31:21.744Z,34.30
2022-12-13T09:32:21.898Z,30.90
2022-12-13T09:33:30.432Z,35.10
2022-12-13T09:34:22.613Z,30.40
2022-12-13T09:35:21.526Z,32.00
2022-12-13T09:36:21.522Z,30.90
2022-12-13T09:37:22.813Z,33.40
2022-12-13T09:38:21.507Z,29.90
2022-12-13T09:39:21.527Z,30.90
2022-12-13T09:40:25.392Z,29.70
2022-12-13T09:41:28.334Z,33.40
2022-12-13T09:42:22.477Z,30.70
2022-12-13T09:43:31.268Z,31.90
2022-12-13T09:44:32.095Z,30.10
2022-12-13T09:45:32.006Z,30.70
2022-12-13T09:46:23.547Z,31.00
2022-12-13T09:47:23.402Z,31.40
2022-12-13T09:48:22.969Z,31.00
2022-12-13T09:49:23.232Z,30.30
2022-12-13T09:50:25.193Z,29.90
2022-12-13T09:51:28.433Z,30.70
2022-12-13T09:52:22.598Z,29.10
2022-12-13T09:53:21.844Z,30.20
2022-12-13T09:54:21.371Z,39.60
2022-12-13T09:55:21.325Z,34.30
2022-12-13T09:56:21.299Z,39.10
2022-12-13T09:57:31.253Z,32.10
2022-12-13T09:58:22.633Z,28.80
2022-12-13T09:59:21.273Z,30.10
2022-12-13T10:00:21.282Z,26.20
2022-12-13T10:01:22.634Z,26.30
2022-12-13T10:02:21.269Z,28.50
2022-12-13T10:03:21.533Z,27.20
2022-12-13T10:04:21.198Z,26.60
2022-12-13T10:05:22.841Z,27.20
2022-12-13T10:06:23.634Z,27.50
2022-12-13T10:07:21.213Z,25.90
2022-12-13T10:08:21.159Z,28.50
2022-12-13T10:09:21.160Z,31.90
2022-12-13T10:10:21.159Z,27.30
2022-12-13T10:11:21.183Z,27.90
2022-12-13T10:12:22.974Z,28.00
2022-12-13T10:13:21.358Z,30.60
2022-12-13T10:14:21.103Z,27.40
2022-12-13T10:15:21.972Z,26.80
2022-12-13T10:16:23.816Z,29.80
2022-12-13T10:17:21.110Z,28.60
2022-12-13T10:18:21.081Z,25.30
2022-12-13T10:19:29.214Z,27.90
2022-12-13T10:20:22.052Z,27.50
2022-12-13T10:21:21.024Z,27.10
2022-12-13T10:22:21.052Z,27.00
2022-12-13T10:23:38.725Z,27.80
2022-12-13T10:24:30.121Z,28.70
2022-12-13T10:25:22.007Z,31.30
2022-12-13T10:26:23.830Z,31.60
2022-12-13T10:27:21.004Z,32.80
2022-12-13T10:28:20.943Z,29.00
2022-12-13T10:29:20.957Z,29.50
2022-12-13T10:30:27.690Z,33.10
2022-12-13T10:31:21.964Z,28.40
2022-12-13T10:32:20.921Z,26.40
2022-12-13T10:33:24.493Z,26.10
2022-12-13T10:34:20.871Z,27.80
2022-12-13T10:35:21.203Z,25.80
2022-12-13T10:36:25.042Z,27.30
2022-12-13T10:37:21.879Z,26.80
2022-12-13T10:38:20.887Z,28.00
2022-12-13T10:39:20.832Z,27.40
2022-12-13T10:40:24.944Z,26.10
2022-12-13T10:41:21.794Z,28.20
2022-12-13T10:42:22.590Z,29.70
2022-12-13T10:43:21.075Z,27.50
2022-12-13T10:44:20.764Z,26.90
2022-12-13T10:45:23.780Z,26.90
2022-12-13T10:46:25.296Z,27.50
2022-12-13T10:47:21.756Z,29.60
2022-12-13T10:48:20.763Z,29.20
2022-12-13T10:49:20.725Z,28.20
2022-12-13T10:50:20.726Z,24.20
2022-12-13T10:51:20.696Z,26.90
2022-12-13T10:52:31.241Z,28.00
2022-12-13T10:53:22.870Z,29.80
2022-12-13T10:54:20.662Z,28.00
2022-12-13T10:55:23.744Z,28.60
2022-12-13T10:56:22.548Z,27.50
2022-12-13T10:57:20.631Z,25.80
2022-12-13T10:58:20.601Z,24.30
2022-12-13T10:59:20.642Z,18.40
2022-12-13T11:00:20.636Z,23.60
2022-12-13T11:01:20.673Z,20.50
2022-12-13T11:02:20.592Z,19.70
2022-12-13T11:03:20.564Z,19.80
2022-12-13T11:04:26.945Z,23.80
2022-12-13T11:05:23.323Z,22.70
2022-12-13T11:06:20.530Z,21.00
2022-12-13T11:07:20.505Z,23.20
2022-12-13T11:08:20.529Z,20.90
2022-12-13T11:09:23.050Z,19.20
2022-12-13T11:10:26.691Z,19.40
2022-12-13T11:11:21.499Z,21.00
2022-12-13T11:12:20.460Z,19.30
2022-12-13T11:13:20.466Z,20.30
2022-12-13T11:14:20.410Z,19.10
2022-12-13T11:15:23.078Z,25.60
2022-12-13T11:16:20.434Z,37.70
2022-12-13T11:17:20.391Z,29.00
2022-12-13T11:18:20.381Z,28.80
2022-12-13T11:19:20.418Z,25.20
2022-12-13T11:20:20.373Z,23.10
2022-12-13T11:21:20.389Z,24.50
2022-12-13T11:22:20.332Z,26.30
2022-12-13T11:23:20.321Z,23.60
2022-12-13T11:24:23.162Z,23.90
2022-12-13T11:25:20.279Z,27.40
2022-12-13T11:26:24.433Z,26.00
2022-12-13T11:27:20.325Z,25.40
2022-12-13T11:28:26.848Z,24.30
2022-12-13T11:29:21.275Z,22.10
2022-12-13T11:30:21.270Z,22.70
2022-12-13T11:31:20.380Z,23.60
2022-12-13T11:32:22.492Z,23.70
2022-12-13T11:33:20.221Z,23.00
2022-12-13T11:34:20.199Z,24.60
2022-12-13T11:35:20.194Z,21.70
2022-12-13T11:36:20.174Z,21.30
2022-12-13T11:37:20.163Z,28.40
2022-12-13T11:38:20.163Z,22.20
2022-12-13T11:39:20.159Z,21.60
2022-12-13T11:40:20.122Z,24.90
2022-12-13T11:41:31.519Z,22.50
2022-12-13T11:42:21.092Z,20.90
2022-12-13T11:43:20.086Z,24.00
2022-12-13T11:44:20.103Z,20.20
2022-12-13T11:45:23.127Z,20.80
2022-12-13T11:46:20.132Z,19.90
2022-12-13T11:47:20.075Z,22.20
2022-12-13T11:48:20.073Z,20.20
2022-12-13T11:49:20.004Z,21.00
2022-12-13T11:50:32.853Z,18.90
2022-12-13T11:51:20.974Z,21.00
2022-12-13T11:52:20.005Z,20.30
2022-12-13T11:53:20.049Z,21.40
2022-12-13T11:54:24.063Z,22.00
2022-12-13T11:55:19.938Z,22.90
2022-12-13T11:56:19.935Z,21.10
2022-12-13T11:57:19.936Z,22.60
2022-12-13T11:58:53.451Z,22.10
2022-12-13T11:59:26.697Z,22.80
2022-12-13T12:00:33.893Z,21.20
2022-12-13T12:01:20.872Z,25.10
2022-12-13T12:02:19.969Z,24.40
2022-12-13T12:03:19.977Z,25.10
2022-12-13T12:04:19.887Z,23.80
2022-12-13T12:05:19.828Z,21.50
2022-12-13T12:06:19.821Z,21.10
2022-12-13T12:07:35.211Z,21.10
2022-12-13T12:08:31.668Z,17.70
2022-12-13T12:09:20.803Z,23.10
2022-12-13T12:10:19.773Z,27.70
2022-12-13T12:11:19.902Z,25.40
2022-12-13T12:12:21.900Z,23.80
2022-12-13T12:13:19.749Z,23.40
2022-12-13T12:14:19.711Z,28.10
2022-12-13T12:15:27.144Z,28.20
2022-12-13T12:16:20.769Z,27.30
2022-12-13T12:17:19.671Z,30.10
2022-12-13T12:18:19.662Z,25.10
2022-12-13T12:19:19.693Z,22.40
2022-12-13T12:20:23.484Z,19.50
2022-12-13T12:21:19.631Z,19.10
2022-12-13T12:22:19.643Z,18.80
2022-12-13T12:23:19.631Z,18.80
2022-12-13T12:24:19.631Z,19.80
2022-12-13T12:25:19.582Z,20.80
2022-12-13T12:26:19.615Z,19.50
2022-12-13T12:27:22.244Z,19.70
2022-12-13T12:28:19.565Z,21.30
2022-12-13T12:29:19.597Z,20.10
2022-12-13T12:30:23.129Z,20.30
2022-12-13T12:31:19.554Z,22.70
2022-12-13T12:32:19.517Z,22.50
2022-12-13T12:33:19.518Z,24.10
2022-12-13T12:34:19.512Z,21.20
2022-12-13T12:35:20.465Z,24.00
2022-12-13T12:36:19.488Z,22.50
2022-12-13T12:37:19.465Z,23.50
2022-12-13T12:38:19.470Z,22.70
2022-12-13T12:39:19.459Z,21.10
2022-12-13T12:40:19.428Z,23.70
2022-12-13T12:41:19.431Z,28.10
2022-12-13T12:42:19.419Z,26.80
2022-12-13T12:43:19.395Z,21.50
2022-12-13T12:44:19.400Z,22.80
2022-12-13T12:45:54.488Z,21.40
2022-12-13T12:46:20.493Z,19.70
2022-12-13T12:47:38.244Z,18.60
2022-12-13T12:49:20.357Z,18.90
2022-12-13T12:50:19.312Z,20.30
2022-12-13T12:51:19.289Z,23.90
2022-12-13T12:52:19.316Z,20.80
2022-12-13T12:53:19.272Z,18.80